createdAt,value
2019-01-13T00:01:23.197Z,7.10
2019-01-13T00:04:11.932Z,7.10
2019-01-13T00:07:00.222Z,7.10
2019-01-13T00:09:48.446Z,7.20
2019-01-13T00:12:37.543Z,7.20
2019-01-13T00:15:25.791Z,7.20
2019-01-13T00:18:13.967Z,7.10
2019-01-13T00:21:02.548Z,7.10
2019-01-13T00:23:51.108Z,7.20
2019-01-13T00:26:39.808Z,7.10
2019-01-13T00:29:28.332Z,7.20
2019-01-13T00:32:16.368Z,7.20
2019-01-13T00:35:05.590Z,7.20
2019-01-13T00:37:53.937Z,7.20
2019-01-13T00:40:42.555Z,7.20
2019-01-13T00:43:30.927Z,7.20
2019-01-13T00:46:19.892Z,7.20
2019-01-13T00:49:08.520Z,7.20
2019-01-13T00:51:56.531Z,7.20
2019-01-13T00:54:44.884Z,7.30
2019-01-13T00:57:33.373Z,7.30
2019-01-13T01:00:26.516Z,7.40
2019-01-13T01:03:12.627Z,7.30
2019-01-13T01:06:01.520Z,7.40
2019-01-13T01:08:49.355Z,7.40
2019-01-13T01:11:37.788Z,7.40
2019-01-13T01:14:26.562Z,7.40
2019-01-13T01:17:14.937Z,7.40
2019-01-13T01:20:03.493Z,7.40
2019-01-13T01:22:51.857Z,7.40
2019-01-13T01:25:40.322Z,7.30
2019-01-13T01:28:29.096Z,7.40
2019-01-13T01:31:17.232Z,7.40
2019-01-13T01:34:05.679Z,7.40
2019-01-13T01:36:54.321Z,7.50
2019-01-13T01:39:43.117Z,7.40
2019-01-13T01:42:31.248Z,7.40
2019-01-13T01:45:20.659Z,7.50
2019-01-13T01:48:08.923Z,7.50
2019-01-13T01:50:57.175Z,7.40
2019-01-13T01:53:45.243Z,7.40
2019-01-13T01:56:33.576Z,7.40
2019-01-13T01:59:22.452Z,7.50
2019-01-13T02:02:11.232Z,7.50
2019-01-13T02:04:59.577Z,7.60
2019-01-13T02:07:48.187Z,7.50
2019-01-13T02:10:36.900Z,7.50
2019-01-13T02:13:25.672Z,7.50
2019-01-13T02:16:14.280Z,7.50
2019-01-13T02:19:02.700Z,7.50
2019-01-13T02:21:50.871Z,7.50
2019-01-13T02:24:39.772Z,7.50
2019-01-13T02:27:28.182Z,7.50
2019-01-13T02:30:18.781Z,7.50
2019-01-13T02:33:06.983Z,7.50
2019-01-13T02:35:55.083Z,7.50
2019-01-13T02:38:43.177Z,7.60
2019-01-13T02:41:30.830Z,7.60
2019-01-13T02:44:19.126Z,7.60
2019-01-13T02:47:07.701Z,7.60
2019-01-13T02:49:55.797Z,7.60
2019-01-13T02:52:43.800Z,7.60
2019-01-13T02:55:32.181Z,7.60
2019-01-13T02:58:20.002Z,7.60
2019-01-13T03:01:08.679Z,7.50
2019-01-13T03:03:56.664Z,7.60
2019-01-13T03:06:45.124Z,7.60
2019-01-13T03:09:32.838Z,7.60
2019-01-13T03:12:20.432Z,7.60
2019-01-13T03:15:08.904Z,7.60
2019-01-13T03:17:57.763Z,7.60
2019-01-13T03:20:46.124Z,7.60
2019-01-13T03:23:33.723Z,7.60
2019-01-13T03:26:21.792Z,7.60
2019-01-13T03:29:10.177Z,7.70
2019-01-13T03:31:58.149Z,7.70
2019-01-13T03:34:46.403Z,7.70
2019-01-13T03:37:34.444Z,7.70
2019-01-13T03:40:24.567Z,7.70
2019-01-13T03:43:12.699Z,7.70
2019-01-13T03:46:01.096Z,7.70
2019-01-13T03:48:49.201Z,7.60
2019-01-13T03:51:37.864Z,7.60
2019-01-13T03:54:26.097Z,7.70
2019-01-13T03:57:14.744Z,7.60
2019-01-13T04:00:02.403Z,7.70
2019-01-13T04:02:50.549Z,7.60
2019-01-13T04:05:39.145Z,7.60
2019-01-13T04:08:27.127Z,7.60
2019-01-13T04:11:15.153Z,7.60
2019-01-13T04:14:02.769Z,7.60
2019-01-13T04:16:51.576Z,7.70
2019-01-13T04:19:40.060Z,7.70
2019-01-13T04:22:28.023Z,7.70
2019-01-13T04:25:15.562Z,7.70
2019-01-13T04:28:04.207Z,7.70
2019-01-13T04:30:51.997Z,7.70
2019-01-13T04:33:40.544Z,7.70
2019-01-13T04:36:28.584Z,7.80
2019-01-13T04:39:16.375Z,7.70
2019-01-13T04:42:04.885Z,7.80
2019-01-13T04:44:53.595Z,7.80
2019-01-13T04:47:41.696Z,7.80
2019-01-13T04:50:29.890Z,7.80
2019-01-13T04:53:18.123Z,7.90
2019-01-13T04:56:05.841Z,7.90
2019-01-13T04:58:53.796Z,7.90
2019-01-13T05:01:42.353Z,7.90
2019-01-13T05:04:30.331Z,7.90
2019-01-13T05:07:19.091Z,7.90
2019-01-13T05:10:10.581Z,7.90
2019-01-13T05:12:59.068Z,7.80
2019-01-13T05:15:47.530Z,7.90
2019-01-13T05:18:35.725Z,7.90
2019-01-13T05:21:24.516Z,7.90
2019-01-13T05:24:13.403Z,7.90
2019-01-13T05:27:01.618Z,7.90
2019-01-13T05:29:49.668Z,7.90
2019-01-13T05:32:37.675Z,7.90
2019-01-13T05:35:26.457Z,7.90
2019-01-13T05:38:14.181Z,7.90
2019-01-13T05:41:02.763Z,7.90
2019-01-13T05:43:51.248Z,7.90
2019-01-13T05:46:39.411Z,7.90
2019-01-13T05:49:28.073Z,7.90
2019-01-13T05:52:16.365Z,7.80
2019-01-13T05:55:05.717Z,7.90
2019-01-13T05:57:54.452Z,7.90
2019-01-13T06:00:43.575Z,7.90
2019-01-13T06:03:31.611Z,7.90
2019-01-13T06:06:19.576Z,7.90
2019-01-13T06:09:08.455Z,7.90
2019-01-13T06:11:56.552Z,7.90
2019-01-13T06:14:44.883Z,7.90
2019-01-13T06:17:33.180Z,7.90
2019-01-13T06:20:23.380Z,7.90
2019-01-13T06:23:11.639Z,8.00
2019-01-13T06:25:59.835Z,8.00
2019-01-13T06:28:48.223Z,8.00
2019-01-13T06:31:36.451Z,8.00
2019-01-13T06:34:24.063Z,8.00
2019-01-13T06:37:12.093Z,8.00
2019-01-13T06:40:00.263Z,8.00
2019-01-13T06:42:48.727Z,8.00
2019-01-13T06:45:37.485Z,8.00
2019-01-13T06:48:25.950Z,8.00
2019-01-13T06:51:13.678Z,8.00
2019-01-13T06:54:01.308Z,8.00
2019-01-13T06:56:49.804Z,8.00
2019-01-13T06:59:38.075Z,8.00
2019-01-13T07:02:26.554Z,8.10
2019-01-13T07:05:15.209Z,8.10
2019-01-13T07:08:03.834Z,8.10
2019-01-13T07:10:51.571Z,8.10
2019-01-13T07:13:39.999Z,8.10
2019-01-13T07:16:28.403Z,8.10
2019-01-13T07:19:16.217Z,8.10
2019-01-13T07:22:04.597Z,8.10
2019-01-13T07:24:52.871Z,8.10
2019-01-13T07:27:41.796Z,8.10
2019-01-13T07:30:30.072Z,8.10
2019-01-13T07:33:18.146Z,8.10
2019-01-13T07:36:06.751Z,8.10
2019-01-13T07:38:54.344Z,8.20
2019-01-13T07:41:42.503Z,8.20
2019-01-13T07:44:30.167Z,8.10
2019-01-13T07:47:18.384Z,8.20
2019-01-13T07:50:08.432Z,8.20
2019-01-13T07:52:56.343Z,8.20
2019-01-13T07:55:44.231Z,8.20
2019-01-13T07:58:33.013Z,8.20
2019-01-13T08:01:21.170Z,8.20
2019-01-13T08:04:09.606Z,8.30
2019-01-13T08:06:57.720Z,8.20
2019-01-13T08:09:46.117Z,8.30
2019-01-13T08:12:34.359Z,8.30
2019-01-13T08:15:22.579Z,8.30
2019-01-13T08:18:11.091Z,8.30
2019-01-13T08:20:59.391Z,8.40
2019-01-13T08:23:46.937Z,8.30
2019-01-13T08:26:35.278Z,8.40
2019-01-13T08:29:23.259Z,8.40
2019-01-13T08:32:11.371Z,8.40
2019-01-13T08:34:59.674Z,8.40
2019-01-13T08:37:47.491Z,8.50
2019-01-13T08:40:35.460Z,8.50
2019-01-13T08:43:23.031Z,8.50
2019-01-13T08:46:11.587Z,8.50
2019-01-13T08:48:59.504Z,8.50
2019-01-13T08:51:47.637Z,8.50
2019-01-13T08:54:35.603Z,8.50
2019-01-13T08:57:24.139Z,8.50
2019-01-13T09:00:16.313Z,8.60
2019-01-13T09:03:05.989Z,8.60
2019-01-13T09:05:53.637Z,8.70
2019-01-13T09:08:41.396Z,8.60
2019-01-13T09:11:29.524Z,8.70
2019-01-13T09:14:17.828Z,8.70
2019-01-13T09:17:06.143Z,8.80
2019-01-13T09:19:54.289Z,8.80
2019-01-13T09:22:42.763Z,8.80
2019-01-13T09:25:31.949Z,8.80
2019-01-13T09:28:20.339Z,8.90
2019-01-13T09:31:08.966Z,8.90
2019-01-13T09:33:57.743Z,8.90
2019-01-13T09:36:45.703Z,8.90
2019-01-13T09:39:33.586Z,9.00
2019-01-13T09:42:21.815Z,9.00
2019-01-13T09:45:10.807Z,9.00
2019-01-13T09:47:59.231Z,9.00
2019-01-13T09:50:47.751Z,9.00
2019-01-13T09:53:36.121Z,9.10
2019-01-13T09:56:24.695Z,9.10
2019-01-13T09:59:13.007Z,9.10
2019-01-13T10:02:00.843Z,9.10
2019-01-13T10:04:49.362Z,9.00
2019-01-13T10:07:37.610Z,9.00
2019-01-13T10:10:25.965Z,9.00
2019-01-13T10:13:14.487Z,9.10
2019-01-13T10:16:02.797Z,9.00
2019-01-13T10:18:50.923Z,9.00
2019-01-13T10:21:39.129Z,9.00
2019-01-13T10:24:27.214Z,9.00
2019-01-13T10:27:14.759Z,9.00
2019-01-13T10:30:02.934Z,9.00
2019-01-13T10:32:54.527Z,9.00
2019-01-13T10:35:41.567Z,9.00
2019-01-13T10:38:29.719Z,9.00
2019-01-13T10:41:17.713Z,9.00
2019-01-13T10:44:05.999Z,9.00
2019-01-13T10:46:54.222Z,9.00
2019-01-13T10:49:42.383Z,9.00
2019-01-13T10:52:30.414Z,9.00
2019-01-13T10:55:18.773Z,9.00
2019-01-13T10:58:07.422Z,9.90
2019-01-13T11:00:55.439Z,10.00
2019-01-13T11:03:43.456Z,10.50
2019-01-13T11:06:31.895Z,10.70
2019-01-13T11:09:19.835Z,10.40
2019-01-13T11:12:08.320Z,9.90
2019-01-13T11:14:56.538Z,9.80
2019-01-13T11:17:45.003Z,9.90
2019-01-13T11:20:38.267Z,9.60
2019-01-13T11:23:26.368Z,9.30
2019-01-13T11:26:14.793Z,9.20
2019-01-13T11:29:02.614Z,9.20
2019-01-13T11:31:51.069Z,9.20
2019-01-13T11:34:39.239Z,9.20
2019-01-13T11:37:27.433Z,9.20
2019-01-13T11:40:24.307Z,9.20
2019-01-13T11:43:12.817Z,9.20
2019-01-13T11:46:01.141Z,9.20
2019-01-13T11:48:48.685Z,9.20
2019-01-13T11:51:36.952Z,9.10
2019-01-13T11:54:25.903Z,9.10
2019-01-13T11:57:14.322Z,9.10
2019-01-13T12:00:02.399Z,9.20
2019-01-13T12:02:50.507Z,9.10
2019-01-13T12:05:38.939Z,9.10
2019-01-13T12:08:27.258Z,9.20
2019-01-13T12:11:16.068Z,9.10
2019-01-13T12:14:04.591Z,9.20
2019-01-13T12:16:53.019Z,9.10
2019-01-13T12:19:41.598Z,9.10
2019-01-13T12:22:29.951Z,9.10
2019-01-13T12:25:18.787Z,9.10
2019-01-13T12:28:06.361Z,9.10
2019-01-13T12:30:54.439Z,9.10
2019-01-13T12:33:42.857Z,9.20
2019-01-13T12:36:31.535Z,9.10
2019-01-13T12:39:20.015Z,9.10
2019-01-13T12:42:07.698Z,9.10
2019-01-13T12:44:55.898Z,9.10
2019-01-13T12:47:44.498Z,9.10
2019-01-13T12:50:32.824Z,9.10
2019-01-13T12:53:21.595Z,9.00
2019-01-13T12:56:09.846Z,9.10
2019-01-13T12:58:58.010Z,9.00
2019-01-13T13:01:46.758Z,9.00
2019-01-13T13:04:34.468Z,9.00
2019-01-13T13:07:22.923Z,9.00
2019-01-13T13:10:34.510Z,9.10
2019-01-13T13:13:22.815Z,9.10
2019-01-13T13:16:11.081Z,9.00
2019-01-13T13:18:59.592Z,9.10
2019-01-13T13:21:48.333Z,9.00
2019-01-13T13:24:36.374Z,9.10
2019-01-13T13:27:24.539Z,9.00
2019-01-13T13:30:15.780Z,9.00
2019-01-13T13:33:04.446Z,9.00
2019-01-13T13:35:52.651Z,9.00
2019-01-13T13:38:40.876Z,9.00
2019-01-13T13:41:28.904Z,9.00
2019-01-13T13:44:17.304Z,9.00
2019-01-13T13:47:05.546Z,9.00
2019-01-13T13:49:53.732Z,9.00
2019-01-13T13:52:42.046Z,9.00
2019-01-13T13:55:30.481Z,9.00
2019-01-13T13:58:18.394Z,9.00
2019-01-13T14:01:06.851Z,9.00
2019-01-13T14:03:55.311Z,9.00
2019-01-13T14:06:43.299Z,9.00
2019-01-13T14:09:31.078Z,9.00
2019-01-13T14:12:19.474Z,8.90
2019-01-13T14:15:08.291Z,8.90
2019-01-13T14:17:56.392Z,9.00
2019-01-13T14:20:47.891Z,9.00
2019-01-13T14:23:36.346Z,8.90
2019-01-13T14:26:24.675Z,8.90
2019-01-13T14:29:12.631Z,8.90
2019-01-13T14:32:00.874Z,8.90
2019-01-13T14:34:49.147Z,8.90
2019-01-13T14:37:37.483Z,9.00
2019-01-13T14:40:25.806Z,8.90
2019-01-13T14:43:13.978Z,8.90
2019-01-13T14:46:02.211Z,9.00
2019-01-13T14:48:50.710Z,9.00
2019-01-13T14:51:38.367Z,8.90
2019-01-13T14:54:26.763Z,9.00
2019-01-13T14:57:14.759Z,8.90
2019-01-13T15:00:03.036Z,8.90
2019-01-13T15:02:51.141Z,8.90
2019-01-13T15:05:39.463Z,8.90
2019-01-13T15:08:27.614Z,8.90
2019-01-13T15:11:15.667Z,9.00
2019-01-13T15:14:03.362Z,8.90
2019-01-13T15:16:51.547Z,8.90
2019-01-13T15:19:39.991Z,8.90
2019-01-13T15:22:28.032Z,8.90
2019-01-13T15:25:27.776Z,8.90
2019-01-13T15:28:16.772Z,8.90
2019-01-13T15:31:05.146Z,8.90
2019-01-13T15:33:52.715Z,8.90
2019-01-13T15:36:40.802Z,8.90
2019-01-13T15:39:28.827Z,9.00
2019-01-13T15:42:16.879Z,9.00
2019-01-13T15:45:06.490Z,9.00
2019-01-13T15:47:55.054Z,9.00
2019-01-13T15:50:43.235Z,9.00
2019-01-13T15:53:31.418Z,9.00
2019-01-13T15:56:19.829Z,9.00
2019-01-13T15:59:08.683Z,9.00
2019-01-13T16:01:57.159Z,9.00
2019-01-13T16:04:45.141Z,9.00
2019-01-13T16:07:33.346Z,9.00
2019-01-13T16:10:23.387Z,9.00
2019-01-13T16:13:11.591Z,9.00
2019-01-13T16:16:00.052Z,9.00
2019-01-13T16:18:47.931Z,9.00
2019-01-13T16:21:35.706Z,8.90
2019-01-13T16:24:24.119Z,9.00
2019-01-13T16:27:12.686Z,9.00
2019-01-13T16:30:00.350Z,9.00
2019-01-13T16:32:48.474Z,9.00
2019-01-13T16:35:37.050Z,8.90
2019-01-13T16:38:24.906Z,9.00
2019-01-13T16:41:13.506Z,9.00
2019-01-13T16:44:01.739Z,9.00
2019-01-13T16:46:50.466Z,9.00
2019-01-13T16:49:38.902Z,9.00
2019-01-13T16:52:27.054Z,8.90
2019-01-13T16:55:14.798Z,9.00
2019-01-13T16:58:03.077Z,9.00
2019-01-13T17:00:51.323Z,9.00
2019-01-13T17:03:39.904Z,9.00
2019-01-13T17:06:28.194Z,9.00
2019-01-13T17:09:16.694Z,8.90
2019-01-13T17:12:04.804Z,9.00
2019-01-13T17:14:52.939Z,8.90
2019-01-13T17:17:40.566Z,8.90
2019-01-13T17:20:28.643Z,8.90
2019-01-13T17:23:17.338Z,8.90
2019-01-13T17:26:05.434Z,8.90
2019-01-13T17:28:53.868Z,8.90
2019-01-13T17:31:42.102Z,8.90
2019-01-13T17:34:35.863Z,8.90
2019-01-13T17:37:20.315Z,8.80
2019-01-13T17:40:11.176Z,8.80
2019-01-13T17:42:59.139Z,8.60
2019-01-13T17:45:47.659Z,8.50
2019-01-13T17:48:36.167Z,8.20
2019-01-13T17:51:24.210Z,8.10
2019-01-13T17:54:12.520Z,8.00
2019-01-13T17:57:00.723Z,8.00
2019-01-13T17:59:49.199Z,8.00
2019-01-13T18:02:37.419Z,8.00
2019-01-13T18:05:25.935Z,8.00
2019-01-13T18:08:14.048Z,7.90
2019-01-13T18:11:02.271Z,7.80
2019-01-13T18:13:50.818Z,7.80
2019-01-13T18:16:39.359Z,7.90
2019-01-13T18:19:27.279Z,7.80
2019-01-13T18:22:15.059Z,7.80
2019-01-13T18:25:03.318Z,7.80
2019-01-13T18:27:51.307Z,7.80
2019-01-13T18:30:40.088Z,7.90
2019-01-13T18:33:29.618Z,7.90
2019-01-13T18:36:18.367Z,7.90
2019-01-13T18:39:10.273Z,7.90
2019-01-13T18:41:59.065Z,7.90
2019-01-13T18:44:51.916Z,7.80
2019-01-13T18:47:40.843Z,7.80
2019-01-13T18:50:29.378Z,7.80
2019-01-13T18:53:18.036Z,7.90
2019-01-13T18:56:06.770Z,7.80
2019-01-13T18:58:54.939Z,7.80
2019-01-13T19:01:43.084Z,7.80
2019-01-13T19:04:30.959Z,7.70
2019-01-13T19:07:18.867Z,7.70
2019-01-13T19:10:21.735Z,7.80
2019-01-13T19:13:15.935Z,7.90
2019-01-13T19:16:03.479Z,7.90
2019-01-13T19:18:51.538Z,7.90
2019-01-13T19:21:40.038Z,7.80
2019-01-13T19:24:28.228Z,7.70
2019-01-13T19:27:16.221Z,7.60
2019-01-13T19:30:04.447Z,7.60
2019-01-13T19:32:52.778Z,7.50
2019-01-13T19:35:40.895Z,7.50
2019-01-13T19:38:29.835Z,7.60
2019-01-13T19:41:18.083Z,7.60
2019-01-13T19:44:06.975Z,7.50
2019-01-13T19:46:54.915Z,7.50
2019-01-13T19:49:43.502Z,7.60
2019-01-13T19:52:31.402Z,7.50
2019-01-13T19:55:19.928Z,7.50
2019-01-13T19:58:08.195Z,7.50
2019-01-13T20:00:56.506Z,7.50
2019-01-13T20:03:44.510Z,7.50
2019-01-13T20:06:32.918Z,7.70
2019-01-13T20:09:21.511Z,7.70
2019-01-13T20:12:09.749Z,7.60
2019-01-13T20:14:57.698Z,7.70
2019-01-13T20:17:45.964Z,7.70
2019-01-13T20:20:34.048Z,7.80
2019-01-13T20:23:22.295Z,7.80
2019-01-13T20:26:10.719Z,7.90
2019-01-13T20:28:58.859Z,7.80
2019-01-13T20:31:46.379Z,7.90
2019-01-13T20:34:34.834Z,7.90
2019-01-13T20:37:23.078Z,7.80
2019-01-13T20:40:11.894Z,7.80
2019-01-13T20:43:00.233Z,7.80
2019-01-13T20:45:48.141Z,7.80
2019-01-13T20:48:36.647Z,7.80
2019-01-13T20:51:24.678Z,7.80
2019-01-13T20:54:13.163Z,7.90
2019-01-13T20:57:01.963Z,7.80
2019-01-13T20:59:50.715Z,7.80
2019-01-13T21:02:39.047Z,7.80
2019-01-13T21:05:27.850Z,7.80
2019-01-13T21:08:16.148Z,7.80
2019-01-13T21:11:04.806Z,7.90
2019-01-13T21:13:52.787Z,7.90
2019-01-13T21:16:41.336Z,7.80
2019-01-13T21:19:30.660Z,7.80
2019-01-13T21:22:18.607Z,7.80
2019-01-13T21:25:09.020Z,7.80
2019-01-13T21:28:00.206Z,7.70
2019-01-13T21:30:48.768Z,7.60
2019-01-13T21:33:36.651Z,7.70
2019-01-13T21:36:24.550Z,7.60
2019-01-13T21:39:13.032Z,7.60
2019-01-13T21:42:01.012Z,7.50
2019-01-13T21:44:49.387Z,7.50
2019-01-13T21:47:37.446Z,7.50
2019-01-13T21:50:25.750Z,7.60
2019-01-13T21:53:13.690Z,7.50
2019-01-13T21:56:01.972Z,7.60
2019-01-13T21:58:50.143Z,7.50
2019-01-13T22:01:38.522Z,7.60
2019-01-13T22:04:26.823Z,7.60
2019-01-13T22:07:14.855Z,7.60
2019-01-13T22:10:04.292Z,7.60
2019-01-13T22:12:53.096Z,7.70
2019-01-13T22:15:41.595Z,7.70
2019-01-13T22:18:29.697Z,7.80
2019-01-13T22:21:17.470Z,7.80
2019-01-13T22:24:05.742Z,7.80
2019-01-13T22:26:54.023Z,7.70
2019-01-13T22:29:42.346Z,7.70
2019-01-13T22:32:30.235Z,7.60
2019-01-13T22:35:19.152Z,7.70
2019-01-13T22:38:07.154Z,7.60
2019-01-13T22:40:55.162Z,7.60
2019-01-13T22:43:43.427Z,7.50
2019-01-13T22:46:31.155Z,7.60
2019-01-13T22:49:18.986Z,7.60
2019-01-13T22:52:08.163Z,7.60
2019-01-13T22:54:56.187Z,7.60
2019-01-13T22:57:45.234Z,7.50
2019-01-13T23:01:19.606Z,7.50
2019-01-13T23:04:17.886Z,7.30
2019-01-13T23:07:06.319Z,7.20
2019-01-13T23:09:54.293Z,7.20
2019-01-13T23:12:42.725Z,7.20
2019-01-13T23:15:31.203Z,7.20
2019-01-13T23:18:19.689Z,7.20
2019-01-13T23:21:08.091Z,7.20
2019-01-13T23:23:56.763Z,7.20
2019-01-13T23:26:45.034Z,7.30
2019-01-13T23:29:33.299Z,7.30
2019-01-13T23:32:21.316Z,7.20
2019-01-13T23:35:09.639Z,7.20
2019-01-13T23:37:58.178Z,7.20
2019-01-13T23:40:45.994Z,7.20
2019-01-13T23:43:34.011Z,7.20
2019-01-13T23:46:22.627Z,7.20
2019-01-13T23:49:11.668Z,7.20
2019-01-13T23:51:59.634Z,7.30
2019-01-13T23:54:47.574Z,7.20
2019-01-13T23:57:35.550Z,7.20
